sensor_id;sensor_type;location;lat;lon;timestamp;P1;durP1;ratioP1;P2;durP2;ratioP2
32637;SDS011;19045;52.268;10.506;2022-12-18T00:02:02;54.45;;;30.95;;
32637;SDS011;19045;52.268;10.506;2022-12-18T00:04:29;45.53;;;28.20;;
32637;SDS011;19045;52.268;10.506;2022-12-18T00:06:57;49.10;;;28.80;;
32637;SDS011;19045;52.268;10.506;2022-12-18T00:09:24;48.72;;;30.00;;
32637;SDS011;19045;52.268;10.506;2022-12-18T00:11:50;48.75;;;29.42;;
32637;SDS011;19045;52.268;10.506;2022-12-18T00:14:17;46.35;;;29.52;;
32637;SDS011;19045;52.268;10.506;2022-12-18T00:16:44;58.03;;;31.05;;
32637;SDS011;19045;52.268;10.506;2022-12-18T00:19:11;47.88;;;30.17;;
32637;SDS011;19045;52.268;10.506;2022-12-18T00:21:42;49.53;;;29.90;;
32637;SDS011;19045;52.268;10.506;2022-12-18T00:24:12;50.03;;;30.27;;
32637;SDS011;19045;52.268;10.506;2022-12-18T00:26:39;48.90;;;29.30;;
32637;SDS011;19045;52.268;10.506;2022-12-18T00:29:06;54.88;;;31.20;;
32637;SDS011;19045;52.268;10.506;2022-12-18T00:31:36;50.70;;;29.52;;
32637;SDS011;19045;52.268;10.506;2022-12-18T00:34:03;56.50;;;31.05;;
32637;SDS011;19045;52.268;10.506;2022-12-18T00:36:31;55.00;;;30.63;;
32637;SDS011;19045;52.268;10.506;2022-12-18T00:38:59;48.58;;;29.02;;
32637;SDS011;19045;52.268;10.506;2022-12-18T00:41:28;46.63;;;28.58;;
32637;SDS011;19045;52.268;10.506;2022-12-18T00:44:13;57.15;;;30.83;;
32637;SDS011;19045;52.268;10.506;2022-12-18T00:46:41;49.00;;;29.75;;
32637;SDS011;19045;52.268;10.506;2022-12-18T00:49:08;45.28;;;28.35;;
32637;SDS011;19045;52.268;10.506;2022-12-18T00:51:45;49.25;;;29.85;;
32637;SDS011;19045;52.268;10.506;2022-12-18T00:54:11;49.15;;;28.50;;
32637;SDS011;19045;52.268;10.506;2022-12-18T00:56:40;50.30;;;29.13;;
32637;SDS011;19045;52.268;10.506;2022-12-18T00:59:06;50.33;;;29.00;;
32637;SDS011;19045;52.268;10.506;2022-12-18T01:01:33;48.60;;;29.75;;
32637;SDS011;19045;52.268;10.506;2022-12-18T01:04:00;50.13;;;29.95;;
32637;SDS011;19045;52.268;10.506;2022-12-18T01:06:27;55.15;;;31.75;;
32637;SDS011;19045;52.268;10.506;2022-12-18T01:08:54;51.90;;;31.42;;
32637;SDS011;19045;52.268;10.506;2022-12-18T01:11:21;49.67;;;29.17;;
32637;SDS011;19045;52.268;10.506;2022-12-18T01:13:49;55.40;;;30.48;;
32637;SDS011;19045;52.268;10.506;2022-12-18T01:16:17;52.65;;;31.17;;
32637;SDS011;19045;52.268;10.506;2022-12-18T01:18:44;56.72;;;33.70;;
32637;SDS011;19045;52.268;10.506;2022-12-18T01:21:11;50.65;;;31.17;;
32637;SDS011;19045;52.268;10.506;2022-12-18T01:23:39;57.67;;;31.80;;
32637;SDS011;19045;52.268;10.506;2022-12-18T01:26:06;51.75;;;31.05;;
32637;SDS011;19045;52.268;10.506;2022-12-18T01:28:34;52.95;;;32.63;;
32637;SDS011;19045;52.268;10.506;2022-12-18T01:31:12;51.85;;;31.02;;
32637;SDS011;19045;52.268;10.506;2022-12-18T01:33:41;54.28;;;31.48;;
32637;SDS011;19045;52.268;10.506;2022-12-18T01:36:08;50.28;;;31.05;;
32637;SDS011;19045;52.268;10.506;2022-12-18T01:38:40;52.38;;;30.00;;
32637;SDS011;19045;52.268;10.506;2022-12-18T01:41:07;48.08;;;29.88;;
32637;SDS011;19045;52.268;10.506;2022-12-18T01:43:44;50.00;;;28.92;;
32637;SDS011;19045;52.268;10.506;2022-12-18T01:46:18;53.63;;;31.80;;
32637;SDS011;19045;52.268;10.506;2022-12-18T01:48:47;48.80;;;30.48;;
32637;SDS011;19045;52.268;10.506;2022-12-18T01:51:16;49.83;;;30.70;;
32637;SDS011;19045;52.268;10.506;2022-12-18T01:53:44;52.15;;;31.23;;
32637;SDS011;19045;52.268;10.506;2022-12-18T01:56:13;51.33;;;31.13;;
32637;SDS011;19045;52.268;10.506;2022-12-18T01:58:48;48.00;;;29.75;;
32637;SDS011;19045;52.268;10.506;2022-12-18T02:01:21;49.33;;;29.40;;
32637;SDS011;19045;52.268;10.506;2022-12-18T02:03:49;49.00;;;29.42;;
32637;SDS011;19045;52.268;10.506;2022-12-18T02:06:17;53.70;;;31.00;;
32637;SDS011;19045;52.268;10.506;2022-12-18T02:08:53;52.58;;;31.65;;
32637;SDS011;19045;52.268;10.506;2022-12-18T02:11:30;51.03;;;29.90;;
32637;SDS011;19045;52.268;10.506;2022-12-18T02:14:07;48.22;;;29.98;;
32637;SDS011;19045;52.268;10.506;2022-12-18T02:16:51;50.67;;;29.88;;
32637;SDS011;19045;52.268;10.506;2022-12-18T02:19:37;48.55;;;28.13;;
32637;SDS011;19045;52.268;10.506;2022-12-18T02:22:16;49.72;;;29.52;;
32637;SDS011;19045;52.268;10.506;2022-12-18T02:24:54;49.28;;;30.42;;
32637;SDS011;19045;52.268;10.506;2022-12-18T02:27:32;51.10;;;30.48;;
32637;SDS011;19045;52.268;10.506;2022-12-18T02:30:01;54.45;;;30.27;;
32637;SDS011;19045;52.268;10.506;2022-12-18T02:32:30;48.67;;;29.80;;
32637;SDS011;19045;52.268;10.506;2022-12-18T02:35:00;54.75;;;31.08;;
32637;SDS011;19045;52.268;10.506;2022-12-18T02:37:30;56.22;;;30.23;;
32637;SDS011;19045;52.268;10.506;2022-12-18T02:39:58;46.83;;;29.23;;
32637;SDS011;19045;52.268;10.506;2022-12-18T02:42:26;46.75;;;28.95;;
32637;SDS011;19045;52.268;10.506;2022-12-18T02:44:58;49.22;;;28.95;;
32637;SDS011;19045;52.268;10.506;2022-12-18T02:47:27;44.45;;;26.85;;
32637;SDS011;19045;52.268;10.506;2022-12-18T02:49:58;49.22;;;29.55;;
32637;SDS011;19045;52.268;10.506;2022-12-18T02:52:34;50.95;;;28.08;;
32637;SDS011;19045;52.268;10.506;2022-12-18T02:55:10;46.92;;;27.70;;
32637;SDS011;19045;52.268;10.506;2022-12-18T02:57:45;50.22;;;27.90;;
32637;SDS011;19045;52.268;10.506;2022-12-18T03:00:18;51.30;;;28.38;;
32637;SDS011;19045;52.268;10.506;2022-12-18T03:02:47;47.03;;;27.70;;
32637;SDS011;19045;52.268;10.506;2022-12-18T03:05:19;48.20;;;27.92;;
32637;SDS011;19045;52.268;10.506;2022-12-18T03:07:51;49.95;;;28.10;;
32637;SDS011;19045;52.268;10.506;2022-12-18T03:10:24;42.08;;;26.98;;
32637;SDS011;19045;52.268;10.506;2022-12-18T03:12:54;43.95;;;26.90;;
32637;SDS011;19045;52.268;10.506;2022-12-18T03:15:28;55.10;;;27.98;;
32637;SDS011;19045;52.268;10.506;2022-12-18T03:18:01;46.00;;;27.27;;
32637;SDS011;19045;52.268;10.506;2022-12-18T03:20:31;49.88;;;27.90;;
32637;SDS011;19045;52.268;10.506;2022-12-18T03:23:02;51.45;;;28.08;;
32637;SDS011;19045;52.268;10.506;2022-12-18T03:25:33;42.97;;;26.38;;
32637;SDS011;19045;52.268;10.506;2022-12-18T03:28:04;46.92;;;27.35;;
32637;SDS011;19045;52.268;10.506;2022-12-18T03:30:35;46.55;;;28.02;;
32637;SDS011;19045;52.268;10.506;2022-12-18T03:33:07;49.22;;;27.95;;
32637;SDS011;19045;52.268;10.506;2022-12-18T03:35:37;47.20;;;27.75;;
32637;SDS011;19045;52.268;10.506;2022-12-18T03:38:06;51.85;;;26.45;;
32637;SDS011;19045;52.268;10.506;2022-12-18T03:40:35;51.22;;;28.05;;
32637;SDS011;19045;52.268;10.506;2022-12-18T03:43:12;45.45;;;26.98;;
32637;SDS011;19045;52.268;10.506;2022-12-18T03:45:48;51.65;;;27.02;;
32637;SDS011;19045;52.268;10.506;2022-12-18T03:48:19;45.67;;;27.00;;
32637;SDS011;19045;52.268;10.506;2022-12-18T03:50:56;48.55;;;27.05;;
32637;SDS011;19045;52.268;10.506;2022-12-18T03:53:28;51.10;;;27.98;;
32637;SDS011;19045;52.268;10.506;2022-12-18T03:56:03;52.40;;;28.38;;
32637;SDS011;19045;52.268;10.506;2022-12-18T03:58:31;45.40;;;27.30;;
32637;SDS011;19045;52.268;10.506;2022-12-18T04:01:08;49.28;;;27.67;;
32637;SDS011;19045;52.268;10.506;2022-12-18T04:03:39;48.67;;;26.70;;
32637;SDS011;19045;52.268;10.506;2022-12-18T04:06:08;44.47;;;27.30;;
32637;SDS011;19045;52.268;10.506;2022-12-18T04:08:37;45.35;;;28.15;;
32637;SDS011;19045;52.268;10.506;2022-12-18T04:11:05;50.08;;;28.08;;
32637;SDS011;19045;52.268;10.506;2022-12-18T04:13:32;50.80;;;29.38;;
32637;SDS011;19045;52.268;10.506;2022-12-18T04:16:01;46.53;;;28.08;;
32637;SDS011;19045;52.268;10.506;2022-12-18T04:18:29;47.80;;;28.08;;
32637;SDS011;19045;52.268;10.506;2022-12-18T04:20:56;50.08;;;27.45;;
32637;SDS011;19045;52.268;10.506;2022-12-18T04:23:23;47.13;;;28.40;;
32637;SDS011;19045;52.268;10.506;2022-12-18T04:25:49;50.40;;;28.35;;
32637;SDS011;19045;52.268;10.506;2022-12-18T04:28:16;49.35;;;28.27;;
32637;SDS011;19045;52.268;10.506;2022-12-18T04:30:43;48.80;;;29.80;;
32637;SDS011;19045;52.268;10.506;2022-12-18T04:33:09;48.53;;;28.90;;
32637;SDS011;19045;52.268;10.506;2022-12-18T04:35:38;48.08;;;26.48;;
32637;SDS011;19045;52.268;10.506;2022-12-18T04:38:05;48.38;;;28.45;;
32637;SDS011;19045;52.268;10.506;2022-12-18T04:40:35;50.33;;;28.88;;
32637;SDS011;19045;52.268;10.506;2022-12-18T04:43:01;52.42;;;29.15;;
32637;SDS011;19045;52.268;10.506;2022-12-18T04:45:28;51.80;;;30.08;;
32637;SDS011;19045;52.268;10.506;2022-12-18T04:47:56;50.17;;;27.40;;
32637;SDS011;19045;52.268;10.506;2022-12-18T04:50:23;49.28;;;27.70;;
32637;SDS011;19045;52.268;10.506;2022-12-18T04:52:51;56.08;;;29.92;;
32637;SDS011;19045;52.268;10.506;2022-12-18T04:55:18;51.33;;;29.92;;
32637;SDS011;19045;52.268;10.506;2022-12-18T04:57:44;58.13;;;30.17;;
32637;SDS011;19045;52.268;10.506;2022-12-18T05:00:11;51.30;;;28.77;;
32637;SDS011;19045;52.268;10.506;2022-12-18T05:02:41;55.30;;;30.00;;
32637;SDS011;19045;52.268;10.506;2022-12-18T05:05:08;53.28;;;29.52;;
32637;SDS011;19045;52.268;10.506;2022-12-18T05:07:36;50.15;;;28.80;;
32637;SDS011;19045;52.268;10.506;2022-12-18T05:10:07;48.67;;;28.23;;
32637;SDS011;19045;52.268;10.506;2022-12-18T05:12:35;54.90;;;30.02;;
32637;SDS011;19045;52.268;10.506;2022-12-18T05:15:22;61.10;;;29.38;;
32637;SDS011;19045;52.268;10.506;2022-12-18T05:17:48;58.30;;;31.10;;
32637;SDS011;19045;52.268;10.506;2022-12-18T05:20:15;54.55;;;28.23;;
32637;SDS011;19045;52.268;10.506;2022-12-18T05:22:43;54.28;;;29.17;;
32637;SDS011;19045;52.268;10.506;2022-12-18T05:25:11;55.05;;;29.55;;
32637;SDS011;19045;52.268;10.506;2022-12-18T05:27:38;51.45;;;27.67;;
32637;SDS011;19045;52.268;10.506;2022-12-18T05:30:05;55.50;;;29.63;;
32637;SDS011;19045;52.268;10.506;2022-12-18T05:32:32;55.90;;;28.27;;
32637;SDS011;19045;52.268;10.506;2022-12-18T05:34:59;53.70;;;28.45;;
32637;SDS011;19045;52.268;10.506;2022-12-18T05:37:26;53.88;;;28.67;;
32637;SDS011;19045;52.268;10.506;2022-12-18T05:39:52;51.70;;;28.65;;
32637;SDS011;19045;52.268;10.506;2022-12-18T05:42:20;55.40;;;27.88;;
32637;SDS011;19045;52.268;10.506;2022-12-18T05:44:47;54.70;;;28.73;;
32637;SDS011;19045;52.268;10.506;2022-12-18T05:47:14;48.30;;;26.85;;
32637;SDS011;19045;52.268;10.506;2022-12-18T05:49:40;52.45;;;27.65;;
32637;SDS011;19045;52.268;10.506;2022-12-18T05:52:07;51.92;;;28.35;;
32637;SDS011;19045;52.268;10.506;2022-12-18T05:54:34;54.47;;;29.13;;
32637;SDS011;19045;52.268;10.506;2022-12-18T05:57:01;52.08;;;28.90;;
32637;SDS011;19045;52.268;10.506;2022-12-18T05:59:29;53.13;;;30.50;;
32637;SDS011;19045;52.268;10.506;2022-12-18T06:01:55;53.08;;;28.83;;
32637;SDS011;19045;52.268;10.506;2022-12-18T06:04:22;53.45;;;29.55;;
32637;SDS011;19045;52.268;10.506;2022-12-18T06:06:49;47.35;;;27.17;;
32637;SDS011;19045;52.268;10.506;2022-12-18T06:09:15;53.85;;;29.05;;
32637;SDS011;19045;52.268;10.506;2022-12-18T06:11:42;51.45;;;29.17;;
32637;SDS011;19045;52.268;10.506;2022-12-18T06:14:09;54.78;;;27.70;;
32637;SDS011;19045;52.268;10.506;2022-12-18T06:16:37;51.78;;;25.90;;
32637;SDS011;19045;52.268;10.506;2022-12-18T06:19:04;47.22;;;27.55;;
32637;SDS011;19045;52.268;10.506;2022-12-18T06:21:31;55.92;;;28.10;;
32637;SDS011;19045;52.268;10.506;2022-12-18T06:23:59;51.88;;;25.98;;
32637;SDS011;19045;52.268;10.506;2022-12-18T06:26:26;53.00;;;26.67;;
32637;SDS011;19045;52.268;10.506;2022-12-18T06:28:52;55.15;;;28.23;;
32637;SDS011;19045;52.268;10.506;2022-12-18T06:31:19;44.78;;;26.77;;
32637;SDS011;19045;52.268;10.506;2022-12-18T06:33:47;46.10;;;25.38;;
32637;SDS011;19045;52.268;10.506;2022-12-18T06:36:13;49.13;;;25.35;;
32637;SDS011;19045;52.268;10.506;2022-12-18T06:38:41;47.20;;;27.23;;
32637;SDS011;19045;52.268;10.506;2022-12-18T06:41:10;50.13;;;28.25;;
32637;SDS011;19045;52.268;10.506;2022-12-18T06:43:38;51.63;;;26.83;;
32637;SDS011;19045;52.268;10.506;2022-12-18T06:46:05;51.45;;;27.88;;
32637;SDS011;19045;52.268;10.506;2022-12-18T06:48:32;54.22;;;26.85;;
32637;SDS011;19045;52.268;10.506;2022-12-18T06:51:00;53.35;;;28.52;;
32637;SDS011;19045;52.268;10.506;2022-12-18T06:53:27;49.47;;;27.83;;
32637;SDS011;19045;52.268;10.506;2022-12-18T06:55:59;56.08;;;28.80;;
32637;SDS011;19045;52.268;10.506;2022-12-18T06:58:26;58.85;;;29.58;;
32637;SDS011;19045;52.268;10.506;2022-12-18T07:00:53;52.67;;;28.58;;
32637;SDS011;19045;52.268;10.506;2022-12-18T07:03:25;60.13;;;28.77;;
32637;SDS011;19045;52.268;10.506;2022-12-18T07:05:51;60.42;;;31.92;;
32637;SDS011;19045;52.268;10.506;2022-12-18T07:08:19;50.55;;;28.38;;
32637;SDS011;19045;52.268;10.506;2022-12-18T07:10:46;58.10;;;29.45;;
32637;SDS011;19045;52.268;10.506;2022-12-18T07:13:14;55.78;;;28.58;;
32637;SDS011;19045;52.268;10.506;2022-12-18T07:15:40;60.88;;;29.08;;
32637;SDS011;19045;52.268;10.506;2022-12-18T07:18:07;54.47;;;28.65;;
32637;SDS011;19045;52.268;10.506;2022-12-18T07:20:33;54.55;;;28.65;;
32637;SDS011;19045;52.268;10.506;2022-12-18T07:23:01;61.20;;;28.48;;
32637;SDS011;19045;52.268;10.506;2022-12-18T07:25:29;52.83;;;27.55;;
32637;SDS011;19045;52.268;10.506;2022-12-18T07:27:55;53.53;;;28.30;;
32637;SDS011;19045;52.268;10.506;2022-12-18T07:30:22;51.20;;;28.77;;
32637;SDS011;19045;52.268;10.506;2022-12-18T07:32:49;58.08;;;29.15;;
32637;SDS011;19045;52.268;10.506;2022-12-18T07:35:15;56.67;;;28.38;;
32637;SDS011;19045;52.268;10.506;2022-12-18T07:37:42;55.30;;;27.35;;
32637;SDS011;19045;52.268;10.506;2022-12-18T07:40:09;54.70;;;28.15;;
32637;SDS011;19045;52.268;10.506;2022-12-18T07:42:38;52.25;;;27.52;;
32637;SDS011;19045;52.268;10.506;2022-12-18T07:45:05;53.67;;;28.05;;
32637;SDS011;19045;52.268;10.506;2022-12-18T07:47:33;61.15;;;28.63;;
32637;SDS011;19045;52.268;10.506;2022-12-18T07:50:00;57.72;;;29.05;;
32637;SDS011;19045;52.268;10.506;2022-12-18T07:52:27;57.72;;;29.38;;
32637;SDS011;19045;52.268;10.506;2022-12-18T07:54:53;55.65;;;29.25;;
32637;SDS011;19045;52.268;10.506;2022-12-18T07:57:20;54.28;;;28.48;;
32637;SDS011;19045;52.268;10.506;2022-12-18T07:59:48;57.85;;;28.83;;
32637;SDS011;19045;52.268;10.506;2022-12-18T08:02:15;59.30;;;30.00;;
32637;SDS011;19045;52.268;10.506;2022-12-18T08:04:42;55.42;;;29.60;;
32637;SDS011;19045;52.268;10.506;2022-12-18T08:07:08;57.30;;;28.35;;
32637;SDS011;19045;52.268;10.506;2022-12-18T08:09:35;57.28;;;27.15;;
32637;SDS011;19045;52.268;10.506;2022-12-18T08:12:01;63.70;;;29.08;;
32637;SDS011;19045;52.268;10.506;2022-12-18T08:14:28;55.85;;;28.35;;
32637;SDS011;19045;52.268;10.506;2022-12-18T08:16:56;65.65;;;31.15;;
32637;SDS011;19045;52.268;10.506;2022-12-18T08:19:23;56.60;;;27.35;;
32637;SDS011;19045;52.268;10.506;2022-12-18T08:21:50;44.45;;;24.48;;
32637;SDS011;19045;52.268;10.506;2022-12-18T08:24:16;48.75;;;25.45;;
32637;SDS011;19045;52.268;10.506;2022-12-18T08:26:43;46.42;;;23.58;;
32637;SDS011;19045;52.268;10.506;2022-12-18T08:29:09;42.28;;;22.75;;
32637;SDS011;19045;52.268;10.506;2022-12-18T08:31:36;45.53;;;23.35;;
32637;SDS011;19045;52.268;10.506;2022-12-18T08:34:04;38.85;;;22.05;;
32637;SDS011;19045;52.268;10.506;2022-12-18T08:36:31;38.95;;;21.38;;
32637;SDS011;19045;52.268;10.506;2022-12-18T08:38:57;42.53;;;21.40;;
32637;SDS011;19045;52.268;10.506;2022-12-18T08:41:24;40.15;;;21.15;;
32637;SDS011;19045;52.268;10.506;2022-12-18T08:43:51;36.55;;;21.33;;
32637;SDS011;19045;52.268;10.506;2022-12-18T08:46:35;36.55;;;20.98;;
32637;SDS011;19045;52.268;10.506;2022-12-18T08:49:05;36.05;;;21.08;;
32637;SDS011;19045;52.268;10.506;2022-12-18T08:51:32;34.22;;;20.58;;
32637;SDS011;19045;52.268;10.506;2022-12-18T08:53:59;31.55;;;19.40;;
32637;SDS011;19045;52.268;10.506;2022-12-18T08:56:26;36.38;;;20.50;;
32637;SDS011;19045;52.268;10.506;2022-12-18T08:58:55;33.33;;;19.80;;
32637;SDS011;19045;52.268;10.506;2022-12-18T09:01:22;33.38;;;18.15;;
32637;SDS011;19045;52.268;10.506;2022-12-18T09:03:49;31.15;;;18.40;;
32637;SDS011;19045;52.268;10.506;2022-12-18T09:06:20;32.45;;;17.13;;
32637;SDS011;19045;52.268;10.506;2022-12-18T09:08:48;28.95;;;17.00;;
32637;SDS011;19045;52.268;10.506;2022-12-18T09:11:18;27.75;;;17.58;;
32637;SDS011;19045;52.268;10.506;2022-12-18T09:13:47;30.42;;;17.52;;
32637;SDS011;19045;52.268;10.506;2022-12-18T09:16:14;28.33;;;17.13;;
32637;SDS011;19045;52.268;10.506;2022-12-18T09:18:42;25.95;;;15.73;;
32637;SDS011;19045;52.268;10.506;2022-12-18T09:21:09;25.98;;;16.02;;
32637;SDS011;19045;52.268;10.506;2022-12-18T09:23:38;23.40;;;15.52;;
32637;SDS011;19045;52.268;10.506;2022-12-18T09:26:05;23.73;;;15.68;;
32637;SDS011;19045;52.268;10.506;2022-12-18T09:28:32;25.17;;;15.15;;
32637;SDS011;19045;52.268;10.506;2022-12-18T09:31:02;24.30;;;15.15;;
32637;SDS011;19045;52.268;10.506;2022-12-18T09:33:30;21.13;;;13.68;;
32637;SDS011;19045;52.268;10.506;2022-12-18T09:35:57;22.10;;;14.32;;
32637;SDS011;19045;52.268;10.506;2022-12-18T09:38:23;21.65;;;13.80;;
32637;SDS011;19045;52.268;10.506;2022-12-18T09:40:52;22.20;;;14.50;;
32637;SDS011;19045;52.268;10.506;2022-12-18T09:43:24;21.92;;;14.00;;
32637;SDS011;19045;52.268;10.506;2022-12-18T09:45:55;22.30;;;13.25;;
32637;SDS011;19045;52.268;10.506;2022-12-18T09:48:27;22.73;;;13.00;;
32637;SDS011;19045;52.268;10.506;2022-12-18T09:50:57;17.52;;;12.10;;
32637;SDS011;19045;52.268;10.506;2022-12-18T09:53:30;18.48;;;12.05;;
32637;SDS011;19045;52.268;10.506;2022-12-18T09:58:30;17.38;;;11.93;;
32637;SDS011;19045;52.268;10.506;2022-12-18T10:01:01;19.13;;;12.95;;
32637;SDS011;19045;52.268;10.506;2022-12-18T10:03:28;20.20;;;12.77;;
32637;SDS011;19045;52.268;10.506;2022-12-18T10:05:58;18.52;;;11.90;;
32637;SDS011;19045;52.268;10.506;2022-12-18T10:08:33;26.65;;;13.23;;
32637;SDS011;19045;52.268;10.506;2022-12-18T10:11:24;22.30;;;13.05;;
32637;SDS011;19045;52.268;10.506;2022-12-18T10:13:56;23.48;;;13.50;;
32637;SDS011;19045;52.268;10.506;2022-12-18T10:16:33;19.40;;;13.38;;
32637;SDS011;19045;52.268;10.506;2022-12-18T10:19:14;21.80;;;13.88;;
32637;SDS011;19045;52.268;10.506;2022-12-18T10:21:50;22.33;;;13.05;;
32637;SDS011;19045;52.268;10.506;2022-12-18T10:24:24;23.00;;;13.80;;
32637;SDS011;19045;52.268;10.506;2022-12-18T10:26:59;21.55;;;13.60;;
32637;SDS011;19045;52.268;10.506;2022-12-18T10:29:35;22.35;;;14.15;;
32637;SDS011;19045;52.268;10.506;2022-12-18T10:32:02;25.27;;;14.88;;
32637;SDS011;19045;52.268;10.506;2022-12-18T10:34:29;22.90;;;14.68;;
32637;SDS011;19045;52.268;10.506;2022-12-18T10:36:57;21.92;;;14.50;;
32637;SDS011;19045;52.268;10.506;2022-12-18T10:39:26;23.85;;;14.32;;
32637;SDS011;19045;52.268;10.506;2022-12-18T10:41:56;22.63;;;13.23;;
32637;SDS011;19045;52.268;10.506;2022-12-18T10:44:42;25.15;;;13.93;;
32637;SDS011;19045;52.268;10.506;2022-12-18T10:47:11;21.20;;;13.18;;
32637;SDS011;19045;52.268;10.506;2022-12-18T10:49:42;17.17;;;10.13;;
32637;SDS011;19045;52.268;10.506;2022-12-18T10:52:16;22.65;;;13.73;;
32637;SDS011;19045;52.268;10.506;2022-12-18T10:54:48;21.42;;;12.75;;
32637;SDS011;19045;52.268;10.506;2022-12-18T10:57:28;20.23;;;12.77;;
32637;SDS011;19045;52.268;10.506;2022-12-18T10:59:59;22.60;;;13.30;;
32637;SDS011;19045;52.268;10.506;2022-12-18T11:02:46;22.10;;;13.40;;
32637;SDS011;19045;52.268;10.506;2022-12-18T11:05:22;20.42;;;12.27;;
32637;SDS011;19045;52.268;10.506;2022-12-18T11:07:51;18.52;;;11.88;;
32637;SDS011;19045;52.268;10.506;2022-12-18T11:10:19;22.67;;;13.32;;
32637;SDS011;19045;52.268;10.506;2022-12-18T11:12:49;20.90;;;13.00;;
32637;SDS011;19045;52.268;10.506;2022-12-18T11:15:16;20.25;;;12.45;;
32637;SDS011;19045;52.268;10.506;2022-12-18T11:17:47;19.52;;;12.60;;
32637;SDS011;19045;52.268;10.506;2022-12-18T11:20:24;24.27;;;13.15;;
32637;SDS011;19045;52.268;10.506;2022-12-18T11:22:57;23.00;;;13.30;;
32637;SDS011;19045;52.268;10.506;2022-12-18T11:25:29;21.45;;;12.75;;
32637;SDS011;19045;52.268;10.506;2022-12-18T11:27:59;21.63;;;12.25;;
32637;SDS011;19045;52.268;10.506;2022-12-18T11:30:28;23.60;;;13.00;;
32637;SDS011;19045;52.268;10.506;2022-12-18T11:32:58;28.20;;;12.68;;
32637;SDS011;19045;52.268;10.506;2022-12-18T11:35:32;18.52;;;12.38;;
32637;SDS011;19045;52.268;10.506;2022-12-18T11:38:05;21.30;;;12.15;;
32637;SDS011;19045;52.268;10.506;2022-12-18T11:40:37;22.33;;;12.73;;
32637;SDS011;19045;52.268;10.506;2022-12-18T11:43:10;22.25;;;12.27;;
32637;SDS011;19045;52.268;10.506;2022-12-18T11:45:43;22.77;;;13.55;;
32637;SDS011;19045;52.268;10.506;2022-12-18T11:48:16;27.13;;;13.30;;
32637;SDS011;19045;52.268;10.506;2022-12-18T11:50:48;23.17;;;11.25;;
32637;SDS011;19045;52.268;10.506;2022-12-18T11:53:17;22.33;;;13.02;;
32637;SDS011;19045;52.268;10.506;2022-12-18T11:55:47;21.80;;;12.25;;
32637;SDS011;19045;52.268;10.506;2022-12-18T11:58:24;22.73;;;12.02;;
32637;SDS011;19045;52.268;10.506;2022-12-18T12:01:07;16.10;;;9.95;;
32637;SDS011;19045;52.268;10.506;2022-12-18T12:03:51;17.55;;;9.30;;
32637;SDS011;19045;52.268;10.506;2022-12-18T12:06:39;16.30;;;9.40;;
32637;SDS011;19045;52.268;10.506;2022-12-18T12:09:15;16.58;;;9.18;;
32637;SDS011;19045;52.268;10.506;2022-12-18T12:11:53;11.57;;;8.05;;
32637;SDS011;19045;52.268;10.506;2022-12-18T12:14:41;12.02;;;8.38;;
32637;SDS011;19045;52.268;10.506;2022-12-18T12:17:18;12.13;;;7.80;;
32637;SDS011;19045;52.268;10.506;2022-12-18T12:19:53;13.82;;;9.00;;
32637;SDS011;19045;52.268;10.506;2022-12-18T12:22:30;14.40;;;8.30;;
32637;SDS011;19045;52.268;10.506;2022-12-18T12:25:10;14.80;;;8.48;;
32637;SDS011;19045;52.268;10.506;2022-12-18T12:27:47;13.50;;;9.10;;
32637;SDS011;19045;52.268;10.506;2022-12-18T12:30:26;14.77;;;9.07;;
32637;SDS011;19045;52.268;10.506;2022-12-18T12:33:04;12.07;;;8.15;;
32637;SDS011;19045;52.268;10.506;2022-12-18T12:35:44;11.18;;;7.72;;
32637;SDS011;19045;52.268;10.506;2022-12-18T12:38:19;12.23;;;8.43;;
32637;SDS011;19045;52.268;10.506;2022-12-18T12:40:51;15.10;;;8.88;;
32637;SDS011;19045;52.268;10.506;2022-12-18T12:43:25;13.20;;;8.60;;
32637;SDS011;19045;52.268;10.506;2022-12-18T12:46:02;14.07;;;8.93;;
32637;SDS011;19045;52.268;10.506;2022-12-18T12:48:33;14.55;;;8.80;;
32637;SDS011;19045;52.268;10.506;2022-12-18T12:51:08;13.98;;;9.00;;
32637;SDS011;19045;52.268;10.506;2022-12-18T12:53:40;14.20;;;8.40;;
32637;SDS011;19045;52.268;10.506;2022-12-18T12:56:07;15.60;;;9.82;;
32637;SDS011;19045;52.268;10.506;2022-12-18T12:58:41;19.90;;;11.77;;
32637;SDS011;19045;52.268;10.506;2022-12-18T13:01:19;15.52;;;8.98;;
32637;SDS011;19045;52.268;10.506;2022-12-18T13:03:55;16.77;;;9.55;;
32637;SDS011;19045;52.268;10.506;2022-12-18T13:06:32;16.08;;;9.95;;
32637;SDS011;19045;52.268;10.506;2022-12-18T13:09:08;16.77;;;10.07;;
32637;SDS011;19045;52.268;10.506;2022-12-18T13:11:35;17.88;;;10.85;;
32637;SDS011;19045;52.268;10.506;2022-12-18T13:14:31;17.38;;;10.43;;
32637;SDS011;19045;52.268;10.506;2022-12-18T13:20:10;21.65;;;11.23;;
32637;SDS011;19045;52.268;10.506;2022-12-18T13:22:39;21.98;;;11.55;;
32637;SDS011;19045;52.268;10.506;2022-12-18T13:27:57;22.33;;;12.43;;
32637;SDS011;19045;52.268;10.506;2022-12-18T13:30:47;20.27;;;11.48;;
32637;SDS011;19045;52.268;10.506;2022-12-18T13:36:35;21.10;;;12.90;;
32637;SDS011;19045;52.268;10.506;2022-12-18T13:39:09;24.02;;;12.85;;
32637;SDS011;19045;52.268;10.506;2022-12-18T13:41:37;24.42;;;14.52;;
32637;SDS011;19045;52.268;10.506;2022-12-18T13:44:11;23.73;;;13.48;;
32637;SDS011;19045;52.268;10.506;2022-12-18T13:46:42;23.40;;;14.05;;
32637;SDS011;19045;52.268;10.506;2022-12-18T13:49:17;21.75;;;13.13;;
32637;SDS011;19045;52.268;10.506;2022-12-18T13:51:49;22.30;;;14.07;;
32637;SDS011;19045;52.268;10.506;2022-12-18T13:54:18;30.70;;;15.60;;
32637;SDS011;19045;52.268;10.506;2022-12-18T13:56:48;31.43;;;16.50;;
32637;SDS011;19045;52.268;10.506;2022-12-18T13:59:17;27.73;;;16.20;;
32637;SDS011;19045;52.268;10.506;2022-12-18T14:01:46;25.65;;;16.52;;
32637;SDS011;19045;52.268;10.506;2022-12-18T14:04:26;27.73;;;16.10;;
32637;SDS011;19045;52.268;10.506;2022-12-18T14:06:55;35.72;;;17.70;;
32637;SDS011;19045;52.268;10.506;2022-12-18T14:09:25;29.80;;;17.23;;
32637;SDS011;19045;52.268;10.506;2022-12-18T14:11:55;31.33;;;18.15;;
32637;SDS011;19045;52.268;10.506;2022-12-18T14:14:37;32.28;;;17.75;;
32637;SDS011;19045;52.268;10.506;2022-12-18T14:17:08;30.27;;;18.38;;
32637;SDS011;19045;52.268;10.506;2022-12-18T14:19:40;37.00;;;18.92;;
32637;SDS011;19045;52.268;10.506;2022-12-18T14:22:11;31.52;;;18.35;;
32637;SDS011;19045;52.268;10.506;2022-12-18T14:24:42;30.83;;;18.77;;
32637;SDS011;19045;52.268;10.506;2022-12-18T14:27:12;32.92;;;20.17;;
32637;SDS011;19045;52.268;10.506;2022-12-18T14:29:46;38.60;;;19.30;;
32637;SDS011;19045;52.268;10.506;2022-12-18T14:32:13;31.73;;;19.30;;
32637;SDS011;19045;52.268;10.506;2022-12-18T14:34:43;29.13;;;17.60;;
32637;SDS011;19045;52.268;10.506;2022-12-18T14:37:12;29.42;;;16.67;;
32637;SDS011;19045;52.268;10.506;2022-12-18T14:39:39;34.97;;;17.45;;